createdAt,value
2022-09-16T00:00:34.183Z,1.80
2022-09-16T00:03:21.554Z,1.90
2022-09-16T00:05:51.688Z,1.60
2022-09-16T00:08:19.968Z,2.00
2022-09-16T00:10:47.060Z,1.90
2022-09-16T00:13:14.112Z,2.00
2022-09-16T00:15:45.882Z,2.10
2022-09-16T00:18:12.827Z,2.10
2022-09-16T00:20:51.185Z,2.20
2022-09-16T00:23:19.425Z,2.10
2022-09-16T00:25:54.026Z,1.70
2022-09-16T00:28:22.948Z,2.30
2022-09-16T00:30:49.940Z,1.80
2022-09-16T00:33:18.251Z,2.10
2022-09-16T00:35:45.770Z,1.90
2022-09-16T00:38:13.306Z,2.10
2022-09-16T00:40:45.146Z,2.20
2022-09-16T00:43:14.557Z,2.30
2022-09-16T00:45:43.858Z,1.70
2022-09-16T00:48:17.740Z,2.20
2022-09-16T00:50:55.657Z,2.00
2022-09-16T00:53:33.830Z,1.70
2022-09-16T00:56:06.312Z,2.10
2022-09-16T00:58:40.030Z,2.10
2022-09-16T01:04:05.954Z,1.80
2022-09-16T01:06:37.322Z,2.00
2022-09-16T01:09:05.024Z,1.70
2022-09-16T01:11:32.149Z,1.80
2022-09-16T01:14:20.892Z,1.80
2022-09-16T01:17:00.770Z,2.00
2022-09-16T01:20:06.347Z,1.80
2022-09-16T01:22:42.209Z,2.00
2022-09-16T01:25:41.562Z,1.80
2022-09-16T01:28:27.266Z,1.80
2022-09-16T01:31:24.787Z,3.00
2022-09-16T01:34:11.875Z,2.00
2022-09-16T01:36:59.912Z,2.00
2022-09-16T01:40:05.728Z,2.00
2022-09-16T01:42:47.076Z,2.20
2022-09-16T01:45:35.884Z,2.20
2022-09-16T01:48:24.887Z,2.10
2022-09-16T01:51:00.599Z,2.20
2022-09-16T01:53:34.907Z,2.60
2022-09-16T01:56:39.226Z,1.90
2022-09-16T01:59:10.087Z,2.00
2022-09-16T02:01:47.445Z,2.00
2022-09-16T02:04:29.312Z,2.10
2022-09-16T02:06:59.127Z,2.20
2022-09-16T02:09:32.334Z,2.10
2022-09-16T02:12:05.236Z,1.80
2022-09-16T02:14:39.076Z,2.10
2022-09-16T02:17:12.244Z,2.10
2022-09-16T02:19:46.038Z,1.90
2022-09-16T02:24:47.721Z,2.10
2022-09-16T02:27:21.220Z,1.70
2022-09-16T02:29:55.826Z,1.30
2022-09-16T02:32:26.137Z,1.50
2022-09-16T02:34:55.280Z,2.40
2022-09-16T02:37:28.561Z,1.70
2022-09-16T02:40:01.717Z,1.60
2022-09-16T02:42:29.737Z,1.50
2022-09-16T02:44:57.694Z,1.70
2022-09-16T02:47:33.543Z,1.50
2022-09-16T02:50:19.319Z,1.60
2022-09-16T02:52:56.838Z,2.10
2022-09-16T02:55:37.039Z,1.80
2022-09-16T02:58:07.186Z,1.80
2022-09-16T03:00:40.186Z,1.80
2022-09-16T03:03:08.654Z,1.80
2022-09-16T03:05:35.574Z,1.50
2022-09-16T03:08:03.565Z,1.80
2022-09-16T03:10:42.290Z,1.70
2022-09-16T03:13:28.288Z,1.90
2022-09-16T03:16:33.852Z,2.30
2022-09-16T03:19:36.302Z,2.00
2022-09-16T03:22:16.808Z,1.80
2022-09-16T03:25:11.218Z,1.70
2022-09-16T03:27:56.496Z,1.90
2022-09-16T03:30:23.380Z,1.70
2022-09-16T03:32:59.468Z,1.70
2022-09-16T03:35:32.877Z,1.70
2022-09-16T03:38:01.884Z,1.80
2022-09-16T03:40:32.809Z,2.00
2022-09-16T03:42:59.652Z,1.60
2022-09-16T03:45:26.434Z,2.10
2022-09-16T03:47:53.496Z,1.70
2022-09-16T03:50:21.273Z,1.80
2022-09-16T03:52:48.333Z,1.70
2022-09-16T03:55:16.375Z,1.80
2022-09-16T03:57:43.126Z,1.70
2022-09-16T04:00:10.814Z,1.90
2022-09-16T04:02:40.541Z,1.90
2022-09-16T04:05:08.377Z,1.70
2022-09-16T04:07:35.542Z,1.70
2022-09-16T04:10:03.204Z,1.90
2022-09-16T04:12:30.023Z,1.60
2022-09-16T04:14:56.850Z,1.40
2022-09-16T04:17:23.923Z,1.70
2022-09-16T04:19:52.417Z,1.50
2022-09-16T04:22:19.145Z,1.20
2022-09-16T04:24:45.897Z,1.50
2022-09-16T04:27:12.561Z,1.40
2022-09-16T04:29:39.294Z,1.60
2022-09-16T04:32:06.364Z,1.60
2022-09-16T04:34:33.107Z,1.30
2022-09-16T04:36:59.969Z,1.60
2022-09-16T04:39:26.805Z,1.70
2022-09-16T04:41:53.475Z,1.20
2022-09-16T04:44:20.185Z,1.60
2022-09-16T04:46:48.793Z,1.70
2022-09-16T04:49:15.591Z,1.50
2022-09-16T04:51:42.424Z,1.60
2022-09-16T04:54:09.206Z,2.00
2022-09-16T04:56:36.084Z,1.90
2022-09-16T04:59:04.997Z,2.20
2022-09-16T05:01:34.581Z,2.40
2022-09-16T05:04:03.931Z,2.00
2022-09-16T05:06:34.772Z,2.30
2022-09-16T05:09:02.774Z,2.70
2022-09-16T05:11:36.560Z,2.30
2022-09-16T05:16:32.276Z,2.20
2022-09-16T05:19:00.932Z,2.60
2022-09-16T05:21:28.523Z,2.90
2022-09-16T05:23:59.509Z,2.70
2022-09-16T05:26:28.677Z,2.80
2022-09-16T05:28:55.377Z,2.10
2022-09-16T05:31:25.979Z,1.90
2022-09-16T05:33:55.418Z,2.10
2022-09-16T05:36:22.531Z,2.30
2022-09-16T05:39:11.144Z,1.70
2022-09-16T05:41:36.602Z,1.90
2022-09-16T05:44:03.800Z,2.30
2022-09-16T05:46:30.591Z,2.70
2022-09-16T05:48:58.056Z,1.60
2022-09-16T05:51:25.618Z,2.00
2022-09-16T05:53:54.819Z,2.10
2022-09-16T05:56:26.589Z,1.80
2022-09-16T05:58:55.372Z,1.90
2022-09-16T06:01:28.380Z,1.90
2022-09-16T06:03:55.879Z,1.60
2022-09-16T06:06:26.874Z,1.40
2022-09-16T06:08:58.346Z,1.70
2022-09-16T06:11:27.191Z,1.20
2022-09-16T06:14:01.439Z,1.20
2022-09-16T06:16:32.903Z,1.10
2022-09-16T06:19:06.861Z,1.10
2022-09-16T06:21:33.605Z,1.00
2022-09-16T06:24:00.439Z,1.00
2022-09-16T06:26:27.914Z,1.10
2022-09-16T06:28:55.229Z,1.60
2022-09-16T06:31:24.395Z,0.90
2022-09-16T06:33:52.079Z,1.30
2022-09-16T06:36:21.393Z,1.20
2022-09-16T06:38:49.100Z,1.40
2022-09-16T06:41:17.438Z,1.40
2022-09-16T06:43:44.969Z,1.70
2022-09-16T06:46:15.709Z,1.40
2022-09-16T06:48:49.708Z,1.50
2022-09-16T06:51:19.167Z,1.60
2022-09-16T06:53:46.304Z,1.60
2022-09-16T06:56:15.958Z,1.80
2022-09-16T06:58:49.248Z,1.60
2022-09-16T07:01:20.148Z,1.70
2022-09-16T07:03:49.505Z,1.60
2022-09-16T07:06:18.068Z,1.50
2022-09-16T07:08:45.531Z,1.60
2022-09-16T07:11:20.529Z,1.60
2022-09-16T07:13:48.771Z,1.70
2022-09-16T07:16:20.614Z,1.90
2022-09-16T07:18:48.003Z,1.80
2022-09-16T07:21:17.874Z,2.00
2022-09-16T07:23:45.753Z,2.30
2022-09-16T07:26:15.846Z,2.40
2022-09-16T07:28:45.783Z,2.20
2022-09-16T07:31:17.955Z,2.80
2022-09-16T07:33:47.678Z,2.20
2022-09-16T07:36:17.492Z,2.60
2022-09-16T07:38:44.284Z,1.80
2022-09-16T07:41:15.854Z,2.00
2022-09-16T07:43:43.596Z,1.80
2022-09-16T07:46:13.137Z,2.20
2022-09-16T07:48:40.229Z,1.90
2022-09-16T07:51:10.403Z,1.70
2022-09-16T07:53:37.852Z,2.00
2022-09-16T07:56:07.557Z,1.60
2022-09-16T07:58:34.217Z,1.50
2022-09-16T08:01:04.924Z,1.50
2022-09-16T08:03:36.521Z,1.60
2022-09-16T08:06:06.372Z,1.60
2022-09-16T08:08:33.881Z,1.70
2022-09-16T08:11:01.943Z,1.60
2022-09-16T08:13:31.039Z,2.10
2022-09-16T08:16:04.074Z,2.10
2022-09-16T08:18:31.704Z,2.20
2022-09-16T08:21:01.867Z,1.90
2022-09-16T08:23:29.371Z,2.20
2022-09-16T08:25:58.123Z,2.30
2022-09-16T08:28:26.146Z,2.00
2022-09-16T08:30:53.329Z,1.90
2022-09-16T08:33:23.099Z,1.50
2022-09-16T08:36:17.212Z,1.60
2022-09-16T08:41:40.588Z,1.70
2022-09-16T08:44:12.998Z,1.70
2022-09-16T08:46:52.035Z,2.00
2022-09-16T08:49:53.908Z,2.00
2022-09-16T08:52:29.164Z,1.90
2022-09-16T08:55:05.064Z,1.80
2022-09-16T08:57:37.976Z,2.30
2022-09-16T09:00:12.184Z,2.30
2022-09-16T09:02:47.353Z,1.90
2022-09-16T09:05:39.667Z,2.10
2022-09-16T09:08:06.740Z,1.70
2022-09-16T09:10:49.888Z,1.70
2022-09-16T09:14:01.905Z,1.60
2022-09-16T09:17:00.956Z,1.70
2022-09-16T09:19:55.280Z,1.60
2022-09-16T09:24:57.464Z,1.20
2022-09-16T09:27:31.055Z,1.30
2022-09-16T09:32:58.208Z,1.00
2022-09-16T09:35:49.189Z,1.10
2022-09-16T09:38:36.576Z,1.50
2022-09-16T09:41:27.709Z,1.10
2022-09-16T09:44:05.716Z,1.10
2022-09-16T09:46:41.047Z,1.10
2022-09-16T09:49:15.878Z,0.90
2022-09-16T09:51:54.385Z,1.00
2022-09-16T09:54:31.614Z,1.00
2022-09-16T09:57:04.285Z,0.70
2022-09-16T09:59:48.790Z,0.70
2022-09-16T10:02:19.315Z,1.00
2022-09-16T10:04:46.794Z,0.70
2022-09-16T10:07:17.754Z,0.70
2022-09-16T10:10:09.689Z,0.50
2022-09-16T10:12:36.414Z,0.70
2022-09-16T10:15:03.815Z,0.90
2022-09-16T10:17:32.335Z,0.80
2022-09-16T10:20:06.846Z,0.70
2022-09-16T10:22:34.907Z,0.80
2022-09-16T10:25:06.976Z,0.70
2022-09-16T10:27:37.187Z,0.70
2022-09-16T10:30:19.269Z,0.60
2022-09-16T10:32:55.245Z,0.70
2022-09-16T10:35:28.594Z,0.90
2022-09-16T10:38:22.558Z,0.50
2022-09-16T10:41:00.576Z,0.80
2022-09-16T10:43:30.239Z,0.70
2022-09-16T10:45:57.672Z,0.70
2022-09-16T10:48:28.722Z,0.60
2022-09-16T10:51:01.664Z,0.80
2022-09-16T10:53:44.329Z,0.60
2022-09-16T10:56:21.206Z,0.80
2022-09-16T10:58:49.870Z,0.80
2022-09-16T11:01:33.007Z,0.90
2022-09-16T11:04:15.522Z,0.80
2022-09-16T11:07:01.089Z,0.70
2022-09-16T11:09:27.722Z,1.00
2022-09-16T11:11:57.442Z,0.60
2022-09-16T11:14:32.205Z,1.10
2022-09-16T11:17:10.881Z,0.80
2022-09-16T11:19:57.927Z,0.90
2022-09-16T11:22:52.329Z,0.60
2022-09-16T11:25:51.262Z,0.90
2022-09-16T11:28:42.747Z,0.90
2022-09-16T11:31:33.574Z,0.80
2022-09-16T11:34:38.201Z,0.80
2022-09-16T11:37:29.458Z,0.90
2022-09-16T11:40:22.898Z,1.30
2022-09-16T11:43:20.781Z,1.50
2022-09-16T11:46:19.901Z,1.50
2022-09-16T11:48:55.832Z,0.80
2022-09-16T11:51:44.226Z,1.30
2022-09-16T11:54:13.927Z,1.80
2022-09-16T11:56:51.886Z,1.20
2022-09-16T11:59:37.322Z,0.90
2022-09-16T12:02:13.577Z,0.80
2022-09-16T12:05:19.112Z,1.30
2022-09-16T12:08:02.411Z,0.80
2022-09-16T12:10:52.843Z,1.50
2022-09-16T12:13:49.158Z,0.90
2022-09-16T12:16:48.946Z,0.80
2022-09-16T12:19:38.175Z,1.20
2022-09-16T12:22:15.753Z,1.80
2022-09-16T12:24:54.931Z,0.80
2022-09-16T12:27:40.646Z,0.90
2022-09-16T12:30:24.663Z,1.10
2022-09-16T12:32:57.235Z,1.50
2022-09-16T12:38:02.215Z,0.90
2022-09-16T12:40:56.069Z,0.90
2022-09-16T12:43:37.865Z,0.80
2022-09-16T12:46:23.241Z,0.80
2022-09-16T12:49:21.083Z,1.00
2022-09-16T12:52:09.231Z,1.00
2022-09-16T12:55:14.390Z,1.00
2022-09-16T12:57:59.546Z,0.80
2022-09-16T13:00:35.827Z,0.90
2022-09-16T13:03:13.574Z,1.20
2022-09-16T13:05:47.053Z,0.80
2022-09-16T13:08:26.662Z,1.00
2022-09-16T13:11:39.957Z,0.90
2022-09-16T13:13:58.654Z,0.70
2022-09-16T13:16:33.793Z,0.90
2022-09-16T13:19:34.291Z,0.70
2022-09-16T13:22:25.750Z,0.90
2022-09-16T13:25:27.788Z,0.80
2022-09-16T13:28:16.456Z,0.80
2022-09-16T13:30:43.279Z,1.70
2022-09-16T13:33:09.882Z,1.30
2022-09-16T13:35:42.490Z,0.80
2022-09-16T13:38:18.322Z,0.90
2022-09-16T13:40:58.748Z,0.80
2022-09-16T13:43:37.487Z,0.60
2022-09-16T13:46:07.934Z,0.70
2022-09-16T13:48:42.409Z,0.80
2022-09-16T13:51:15.879Z,0.80
2022-09-16T13:53:46.525Z,1.00
2022-09-16T13:56:13.593Z,0.80
2022-09-16T13:58:50.342Z,0.80
2022-09-16T14:01:58.356Z,1.10
2022-09-16T14:04:53.845Z,1.90
2022-09-16T14:07:29.822Z,1.40
2022-09-16T14:10:21.547Z,1.00
2022-09-16T14:13:21.758Z,1.60
2022-09-16T14:15:59.460Z,1.10
2022-09-16T14:18:30.037Z,0.90
2022-09-16T14:21:05.445Z,1.00
2022-09-16T14:23:33.293Z,1.20
2022-09-16T14:26:15.894Z,1.00
2022-09-16T14:28:43.204Z,1.50
2022-09-16T14:31:22.009Z,0.90
2022-09-16T14:34:26.139Z,1.20
2022-09-16T14:36:54.125Z,1.20
2022-09-16T14:39:24.223Z,1.00
2022-09-16T14:41:55.501Z,1.10
2022-09-16T14:44:31.741Z,1.20
2022-09-16T14:47:29.418Z,1.50
2022-09-16T14:50:08.362Z,1.60
2022-09-16T14:52:35.601Z,1.70
2022-09-16T14:55:13.475Z,1.50
2022-09-16T14:57:40.520Z,1.40
2022-09-16T15:00:18.784Z,1.40
2022-09-16T15:03:06.478Z,1.60
2022-09-16T15:05:37.192Z,1.80
2022-09-16T15:08:14.658Z,1.50
2022-09-16T15:10:54.215Z,1.30
2022-09-16T15:13:26.380Z,1.30
2022-09-16T15:15:59.002Z,1.60
2022-09-16T15:18:37.608Z,2.00
2022-09-16T15:21:09.969Z,1.80
2022-09-16T15:23:39.729Z,2.00
2022-09-16T15:26:31.063Z,1.90
2022-09-16T15:29:01.174Z,1.70
2022-09-16T15:31:40.111Z,1.60
2022-09-16T15:34:21.939Z,1.80
2022-09-16T15:36:58.379Z,1.90
2022-09-16T15:39:25.111Z,1.90
2022-09-16T15:42:13.371Z,2.10
2022-09-16T15:44:47.628Z,1.40
2022-09-16T15:47:49.838Z,1.50
2022-09-16T15:50:20.588Z,1.40
2022-09-16T15:53:06.013Z,1.40
2022-09-16T15:55:58.229Z,1.40
2022-09-16T15:59:00.538Z,1.60
2022-09-16T16:01:30.342Z,1.30
2022-09-16T16:03:59.416Z,1.40
2022-09-16T16:06:55.773Z,1.60
2022-09-16T16:09:28.619Z,2.20
2022-09-16T16:12:04.335Z,3.50
2022-09-16T16:14:32.886Z,3.90
2022-09-16T16:17:14.454Z,5.90
2022-09-16T16:19:43.107Z,6.30
2022-09-16T16:22:10.491Z,5.70
2022-09-16T16:24:37.321Z,3.60
2022-09-16T16:27:04.642Z,3.80
2022-09-16T16:29:31.455Z,3.50
2022-09-16T16:32:13.220Z,2.70
2022-09-16T16:34:43.302Z,3.40
2022-09-16T16:37:27.891Z,5.20
2022-09-16T16:39:59.558Z,5.10
2022-09-16T16:42:28.191Z,4.40
2022-09-16T16:44:56.099Z,3.60
2022-09-16T16:47:23.448Z,3.20
2022-09-16T16:49:51.596Z,2.40
2022-09-16T16:52:18.700Z,1.90
2022-09-16T16:54:46.063Z,2.70
2022-09-16T16:57:12.956Z,2.70
2022-09-16T16:59:39.718Z,1.60
2022-09-16T17:02:06.788Z,1.70
2022-09-16T17:04:33.463Z,1.80
2022-09-16T17:07:25.141Z,1.90
2022-09-16T17:09:48.802Z,2.20
2022-09-16T17:12:15.623Z,2.70
2022-09-16T17:14:42.899Z,2.10
2022-09-16T17:17:09.545Z,2.00
2022-09-16T17:19:36.280Z,1.50
2022-09-16T17:22:03.018Z,1.60
2022-09-16T17:24:30.004Z,1.90
2022-09-16T17:26:56.897Z,2.60
2022-09-16T17:29:26.236Z,3.60
2022-09-16T17:31:54.969Z,2.90
2022-09-16T17:34:22.309Z,3.10
2022-09-16T17:36:49.102Z,3.30
2022-09-16T17:39:18.476Z,2.60
2022-09-16T17:41:48.116Z,2.80
2022-09-16T17:44:16.707Z,4.20
2022-09-16T17:46:44.330Z,4.60
2022-09-16T17:49:20.859Z,4.00
2022-09-16T17:51:48.712Z,3.70
2022-09-16T17:54:16.184Z,3.10
2022-09-16T17:56:43.479Z,3.00
2022-09-16T17:59:12.835Z,3.90
2022-09-16T18:01:39.889Z,3.50
2022-09-16T18:04:07.002Z,3.20
2022-09-16T18:06:44.932Z,2.20
2022-09-16T18:09:12.573Z,2.20
2022-09-16T18:11:39.866Z,2.30
2022-09-16T18:14:09.584Z,2.00
2022-09-16T18:16:36.387Z,2.50
2022-09-16T18:19:03.498Z,2.70
2022-09-16T18:21:31.305Z,2.30
2022-09-16T18:24:01.515Z,3.10
2022-09-16T18:26:31.781Z,3.00
2022-09-16T18:29:16.649Z,2.70
2022-09-16T18:31:46.166Z,2.30
2022-09-16T18:34:14.533Z,3.00
2022-09-16T18:36:41.762Z,2.80
2022-09-16T18:39:14.354Z,2.60
2022-09-16T18:41:43.647Z,2.60
2022-09-16T18:44:16.118Z,2.90
2022-09-16T18:46:42.957Z,2.80
2022-09-16T18:49:12.170Z,2.50
2022-09-16T18:51:46.108Z,2.40
2022-09-16T18:54:18.842Z,2.80
2022-09-16T18:56:45.984Z,2.90
2022-09-16T18:59:22.716Z,2.60
2022-09-16T19:01:53.016Z,3.00
2022-09-16T19:04:23.338Z,2.90
2022-09-16T19:06:53.616Z,3.00
2022-09-16T19:09:22.862Z,2.80
2022-09-16T19:11:52.153Z,3.40
2022-09-16T19:14:21.750Z,3.80
2022-09-16T19:16:48.515Z,2.90
2022-09-16T19:19:15.895Z,3.30
2022-09-16T19:21:43.079Z,3.50
2022-09-16T19:24:15.360Z,2.80
2022-09-16T19:26:43.434Z,3.20
2022-09-16T19:29:11.843Z,3.90
2022-09-16T19:31:40.759Z,2.60
2022-09-16T19:34:08.585Z,3.10
2022-09-16T19:36:36.598Z,3.60
2022-09-16T19:39:05.381Z,3.00
2022-09-16T19:41:34.571Z,3.40
2022-09-16T19:44:04.841Z,3.80
2022-09-16T19:46:37.104Z,3.20
2022-09-16T19:49:05.732Z,3.40
2022-09-16T19:51:32.867Z,3.50
2022-09-16T19:54:00.480Z,3.60
2022-09-16T19:56:30.688Z,3.40
2022-09-16T19:58:57.697Z,3.10
2022-09-16T20:01:26.917Z,3.30
2022-09-16T20:03:54.373Z,3.10
2022-09-16T20:06:41.661Z,3.30
2022-09-16T20:09:12.162Z,3.10
2022-09-16T20:11:41.662Z,3.90
2022-09-16T20:14:13.034Z,3.50
2022-09-16T20:16:41.695Z,3.10
2022-09-16T20:19:11.560Z,3.60
2022-09-16T20:21:38.749Z,2.90
2022-09-16T20:24:07.540Z,3.70
2022-09-16T20:26:35.421Z,3.30
2022-09-16T20:29:03.803Z,3.50
2022-09-16T20:31:33.621Z,3.50
2022-09-16T20:34:01.156Z,3.20
2022-09-16T20:36:30.456Z,3.00
2022-09-16T20:39:01.112Z,3.70
2022-09-16T20:41:30.617Z,3.50
2022-09-16T20:43:58.556Z,3.80
2022-09-16T20:46:31.055Z,3.80
2022-09-16T20:49:01.134Z,4.00
2022-09-16T20:51:33.409Z,3.10
2022-09-16T20:54:07.436Z,3.90
2022-09-16T20:56:38.300Z,3.60
2022-09-16T20:59:11.519Z,3.50
2022-09-16T21:01:40.109Z,4.20
2022-09-16T21:04:12.819Z,3.30
2022-09-16T21:06:40.074Z,3.70
2022-09-16T21:09:10.084Z,4.70
2022-09-16T21:11:40.212Z,8.00
2022-09-16T21:14:07.121Z,7.80
2022-09-16T21:16:36.406Z,6.80
2022-09-16T21:19:05.260Z,5.30
2022-09-16T21:21:31.992Z,4.90
2022-09-16T21:24:00.774Z,4.10
2022-09-16T21:26:30.506Z,4.10
2022-09-16T21:28:57.321Z,4.00
2022-09-16T21:31:26.154Z,4.10
2022-09-16T21:33:53.302Z,4.00
2022-09-16T21:36:23.849Z,4.40
2022-09-16T21:38:51.333Z,4.40
2022-09-16T21:41:23.448Z,4.10
2022-09-16T21:43:55.357Z,3.50
2022-09-16T21:46:25.400Z,4.20
2022-09-16T21:48:54.629Z,4.10
2022-09-16T21:51:21.671Z,4.60
2022-09-16T21:53:48.373Z,4.10
2022-09-16T21:56:18.185Z,4.10
2022-09-16T21:58:46.355Z,4.80
2022-09-16T22:01:18.849Z,4.00
2022-09-16T22:03:52.165Z,4.70
2022-09-16T22:06:19.077Z,4.00
2022-09-16T22:08:48.994Z,4.10
2022-09-16T22:11:19.051Z,4.20
2022-09-16T22:13:46.344Z,4.40
2022-09-16T22:16:26.056Z,4.60
2022-09-16T22:19:08.034Z,4.60
2022-09-16T22:21:37.653Z,4.30
2022-09-16T22:24:05.203Z,4.30
2022-09-16T22:26:32.516Z,4.60
2022-09-16T22:29:00.145Z,4.40
2022-09-16T22:31:32.341Z,4.30
2022-09-16T22:34:01.161Z,4.70
2022-09-16T22:36:30.373Z,4.60
2022-09-16T22:39:04.817Z,5.10
2022-09-16T22:41:32.887Z,4.70
2022-09-16T22:44:00.090Z,5.20
2022-09-16T22:46:32.953Z,5.40
2022-09-16T22:49:00.061Z,5.60
2022-09-16T22:51:29.017Z,5.70
2022-09-16T22:53:56.297Z,4.80
2022-09-16T22:56:31.221Z,4.90
2022-09-16T22:58:59.932Z,4.70
2022-09-16T23:01:31.252Z,5.10
2022-09-16T23:04:01.178Z,4.80
2022-09-16T23:06:29.615Z,5.50
2022-09-16T23:08:57.397Z,5.40
2022-09-16T23:11:28.189Z,4.40
2022-09-16T23:13:56.201Z,5.00
2022-09-16T23:16:31.419Z,4.70
2022-09-16T23:19:00.490Z,5.30
2022-09-16T23:21:28.713Z,4.00
2022-09-16T23:23:58.713Z,3.90
2022-09-16T23:26:27.936Z,4.20
2022-09-16T23:28:56.629Z,4.70
2022-09-16T23:31:25.910Z,4.90
2022-09-16T23:33:53.744Z,4.30
2022-09-16T23:36:21.524Z,4.10
2022-09-16T23:38:48.444Z,4.70
2022-09-16T23:41:25.813Z,4.50
2022-09-16T23:43:54.147Z,4.10
2022-09-16T23:46:22.950Z,4.90
2022-09-16T23:48:53.591Z,4.40
2022-09-16T23:51:26.012Z,4.70
2022-09-16T23:53:56.248Z,4.50
2022-09-16T23:56:23.022Z,4.40
2022-09-16T23:58:50.605Z,4.50
